createdAt,value
2023-03-29T00:01:02.767Z,9.50
2023-03-29T00:03:31.732Z,9.40
2023-03-29T00:06:05.710Z,9.50
2023-03-29T00:08:35.056Z,9.50
2023-03-29T00:11:03.567Z,9.50
2023-03-29T00:13:34.062Z,9.50
2023-03-29T00:16:02.325Z,9.60
2023-03-29T00:18:30.562Z,9.60
2023-03-29T00:21:00.320Z,9.60
2023-03-29T00:23:29.140Z,9.50
2023-03-29T00:25:58.100Z,9.50
2023-03-29T00:28:26.547Z,9.50
2023-03-29T00:31:06.580Z,9.50
2023-03-29T00:33:35.106Z,9.50
2023-03-29T00:36:04.610Z,9.50
2023-03-29T00:38:33.356Z,9.60
2023-03-29T00:41:02.328Z,9.50
2023-03-29T00:43:31.143Z,9.50
2023-03-29T00:46:01.332Z,9.60
2023-03-29T00:48:31.381Z,9.50
2023-03-29T00:51:02.568Z,9.50
2023-03-29T00:53:34.652Z,9.60
2023-03-29T00:56:06.987Z,9.50
2023-03-29T00:58:39.423Z,9.50
2023-03-29T01:01:13.888Z,9.50
2023-03-29T01:03:47.337Z,9.50
2023-03-29T01:06:18.364Z,9.50
2023-03-29T01:08:52.108Z,9.40
2023-03-29T01:11:23.869Z,9.50
2023-03-29T01:13:56.774Z,9.50
2023-03-29T01:16:30.330Z,9.60
2023-03-29T01:18:59.564Z,9.60
2023-03-29T01:21:32.762Z,9.60
2023-03-29T01:24:18.804Z,9.60
2023-03-29T01:26:58.449Z,9.60
2023-03-29T01:29:33.171Z,9.60
2023-03-29T01:32:06.027Z,9.50
2023-03-29T01:34:39.653Z,9.60
2023-03-29T01:37:13.967Z,9.60
2023-03-29T01:39:42.309Z,9.60
2023-03-29T01:42:20.425Z,9.50
2023-03-29T01:44:56.940Z,9.60
2023-03-29T01:47:31.464Z,9.60
2023-03-29T01:50:07.554Z,9.50
2023-03-29T01:52:41.640Z,9.60
2023-03-29T01:55:14.220Z,9.70
2023-03-29T01:57:46.304Z,9.80
2023-03-29T02:00:20.649Z,9.70
2023-03-29T02:02:52.267Z,9.60
2023-03-29T02:05:23.311Z,9.70
2023-03-29T02:07:52.881Z,9.70
2023-03-29T02:10:22.888Z,9.80
2023-03-29T02:12:52.075Z,9.70
2023-03-29T02:15:23.546Z,9.80
2023-03-29T02:17:51.938Z,9.80
2023-03-29T02:20:24.914Z,9.80
2023-03-29T02:22:58.879Z,9.80
2023-03-29T02:25:27.222Z,9.90
2023-03-29T02:30:31.520Z,9.80
2023-03-29T02:33:04.792Z,9.80
2023-03-29T02:35:36.496Z,9.80
2023-03-29T02:38:07.267Z,9.80
2023-03-29T02:40:37.719Z,9.80
2023-03-29T02:43:08.589Z,9.90
2023-03-29T02:45:39.942Z,9.90
2023-03-29T02:48:12.982Z,10.10
2023-03-29T02:50:43.991Z,9.90
2023-03-29T02:53:17.597Z,10.00
2023-03-29T02:55:47.929Z,9.90
2023-03-29T02:58:17.097Z,10.00
2023-03-29T03:00:49.300Z,9.90
2023-03-29T03:03:17.848Z,9.90
2023-03-29T03:05:51.134Z,9.90
2023-03-29T03:08:19.971Z,9.90
2023-03-29T03:10:48.815Z,9.80
2023-03-29T03:13:17.122Z,9.90
2023-03-29T03:15:49.244Z,9.90
2023-03-29T03:18:18.371Z,9.90
2023-03-29T03:20:56.235Z,10.00
2023-03-29T03:23:25.234Z,9.90
2023-03-29T03:25:53.914Z,9.80
2023-03-29T03:28:24.341Z,9.90
2023-03-29T03:30:54.367Z,9.80
2023-03-29T03:33:52.945Z,9.80
2023-03-29T03:36:34.642Z,9.80
2023-03-29T03:39:05.867Z,9.90
2023-03-29T03:41:34.537Z,9.80
2023-03-29T03:44:03.785Z,9.80
2023-03-29T03:46:33.982Z,10.10
2023-03-29T03:49:02.943Z,9.70
2023-03-29T03:51:34.106Z,9.70
2023-03-29T03:54:02.366Z,9.70
2023-03-29T03:56:34.399Z,9.70
2023-03-29T03:59:06.986Z,9.70
2023-03-29T04:01:45.021Z,9.70
2023-03-29T04:04:20.698Z,9.70
2023-03-29T04:07:02.864Z,9.70
2023-03-29T04:09:37.673Z,9.80
2023-03-29T04:12:23.510Z,9.80
2023-03-29T04:14:52.154Z,9.70
2023-03-29T04:17:25.392Z,9.70
2023-03-29T04:19:57.537Z,9.70
2023-03-29T04:22:28.446Z,9.70
2023-03-29T04:24:56.683Z,9.70
2023-03-29T04:27:31.064Z,9.70
2023-03-29T04:30:01.573Z,9.80
2023-03-29T04:32:51.292Z,9.70
2023-03-29T04:35:20.944Z,9.70
2023-03-29T04:37:51.550Z,9.70
2023-03-29T04:40:22.729Z,9.70
2023-03-29T04:43:10.716Z,9.70
2023-03-29T04:45:50.604Z,9.70
2023-03-29T04:48:37.585Z,9.80
2023-03-29T04:51:06.592Z,9.80
2023-03-29T04:53:35.982Z,9.80
2023-03-29T04:56:04.455Z,9.80
2023-03-29T04:58:58.613Z,9.70
2023-03-29T05:01:26.872Z,9.70
2023-03-29T05:06:36.807Z,9.80
2023-03-29T05:09:08.989Z,9.80
2023-03-29T05:11:51.411Z,9.80
2023-03-29T05:14:21.782Z,9.70
2023-03-29T05:16:50.238Z,9.80
2023-03-29T05:19:21.860Z,9.80
2023-03-29T05:21:51.138Z,9.80
2023-03-29T05:24:23.678Z,9.80
2023-03-29T05:26:58.712Z,9.80
2023-03-29T05:29:29.550Z,9.80
2023-03-29T05:32:10.183Z,9.80
2023-03-29T05:34:40.773Z,9.80
2023-03-29T05:37:09.316Z,9.80
2023-03-29T05:39:50.033Z,9.80
2023-03-29T05:42:23.653Z,9.80
2023-03-29T05:45:01.789Z,9.90
2023-03-29T05:47:30.398Z,9.90
2023-03-29T05:50:00.151Z,9.90
2023-03-29T05:52:28.402Z,9.90
2023-03-29T05:54:58.215Z,9.90
2023-03-29T05:57:27.519Z,10.00
2023-03-29T05:59:56.498Z,9.90
2023-03-29T06:02:28.581Z,9.90
2023-03-29T06:04:57.486Z,9.90
2023-03-29T06:07:27.132Z,10.00
2023-03-29T06:10:31.159Z,9.90
2023-03-29T06:13:14.612Z,10.00
2023-03-29T06:15:42.903Z,10.00
2023-03-29T06:18:11.772Z,10.00
2023-03-29T06:20:40.630Z,10.00
2023-03-29T06:23:15.872Z,10.00
2023-03-29T06:25:45.661Z,10.00
2023-03-29T06:28:14.450Z,10.00
2023-03-29T06:30:43.746Z,10.00
2023-03-29T06:33:12.698Z,10.00
2023-03-29T06:36:10.959Z,10.00
2023-03-29T06:38:41.658Z,10.00
2023-03-29T06:41:21.574Z,9.90
2023-03-29T06:43:55.924Z,10.00
2023-03-29T06:46:30.812Z,10.00
2023-03-29T06:49:02.734Z,10.10
2023-03-29T06:51:37.507Z,10.00
2023-03-29T06:54:07.456Z,10.10
2023-03-29T06:56:38.215Z,10.10
2023-03-29T06:59:10.560Z,10.00
2023-03-29T07:01:47.346Z,10.00
2023-03-29T07:04:26.493Z,10.10
2023-03-29T07:07:20.224Z,10.00
2023-03-29T07:09:55.303Z,10.00
2023-03-29T07:12:32.755Z,10.00
2023-03-29T07:15:02.916Z,10.00
2023-03-29T07:17:51.469Z,10.00
2023-03-29T07:20:23.105Z,10.00
2023-03-29T07:23:01.287Z,10.00
2023-03-29T07:25:31.362Z,10.00
2023-03-29T07:28:00.394Z,10.00
2023-03-29T07:30:31.962Z,10.00
2023-03-29T07:33:27.160Z,10.00
2023-03-29T07:36:03.399Z,10.00
2023-03-29T07:38:32.656Z,10.10
2023-03-29T07:41:08.155Z,10.10
2023-03-29T07:43:47.242Z,10.10
2023-03-29T07:46:19.578Z,10.20
2023-03-29T07:48:48.350Z,10.20
2023-03-29T07:51:17.228Z,10.20
2023-03-29T07:53:57.631Z,10.20
2023-03-29T07:56:46.151Z,10.10
2023-03-29T07:59:41.461Z,10.10
2023-03-29T08:02:14.429Z,10.10
2023-03-29T08:04:46.920Z,10.10
2023-03-29T08:07:21.035Z,10.10
2023-03-29T08:10:24.428Z,10.90
2023-03-29T08:13:18.362Z,10.20
2023-03-29T08:16:07.753Z,10.10
2023-03-29T08:18:41.116Z,10.20
2023-03-29T08:21:10.189Z,10.20
2023-03-29T08:23:38.656Z,10.20
2023-03-29T08:26:13.815Z,10.20
2023-03-29T08:28:43.941Z,10.20
2023-03-29T08:31:13.468Z,10.20
2023-03-29T08:33:44.578Z,10.20
2023-03-29T08:36:31.345Z,10.20
2023-03-29T08:39:05.860Z,10.20
2023-03-29T08:41:42.678Z,10.20
2023-03-29T08:44:23.484Z,10.20
2023-03-29T08:47:07.633Z,10.20
2023-03-29T08:49:45.229Z,10.30
2023-03-29T08:52:22.268Z,10.30
2023-03-29T08:54:56.099Z,10.30
2023-03-29T08:57:32.969Z,10.30
2023-03-29T09:00:20.970Z,10.30
2023-03-29T09:02:53.852Z,10.30
2023-03-29T09:05:27.974Z,10.30
2023-03-29T09:08:07.906Z,10.30
2023-03-29T09:10:43.101Z,10.40
2023-03-29T09:13:27.604Z,10.30
2023-03-29T09:16:03.717Z,10.30
2023-03-29T09:18:48.556Z,10.40
2023-03-29T09:21:23.916Z,10.40
2023-03-29T09:24:11.751Z,10.30
2023-03-29T09:26:49.956Z,10.40
2023-03-29T09:29:42.185Z,10.40
2023-03-29T09:32:18.806Z,10.40
2023-03-29T09:34:55.649Z,10.40
2023-03-29T09:37:31.481Z,10.40
2023-03-29T09:40:00.620Z,10.40
2023-03-29T09:42:46.598Z,10.40
2023-03-29T09:45:14.961Z,10.50
2023-03-29T09:47:53.360Z,10.50
2023-03-29T09:50:31.500Z,10.50
2023-03-29T09:53:02.972Z,10.50
2023-03-29T09:55:37.105Z,10.40
2023-03-29T09:58:33.042Z,10.50
2023-03-29T10:01:05.725Z,10.50
2023-03-29T10:03:38.231Z,10.50
2023-03-29T10:06:13.454Z,10.60
2023-03-29T10:08:51.537Z,10.70
2023-03-29T10:11:24.640Z,10.70
2023-03-29T10:13:57.431Z,10.70
2023-03-29T10:16:30.351Z,10.70
2023-03-29T10:19:00.122Z,10.70
2023-03-29T10:21:30.759Z,10.70
2023-03-29T10:24:00.472Z,10.70
2023-03-29T10:26:32.642Z,10.80
2023-03-29T10:29:03.814Z,10.70
2023-03-29T10:31:33.256Z,10.70
2023-03-29T10:34:06.782Z,10.70
2023-03-29T10:36:36.298Z,10.80
2023-03-29T10:39:06.495Z,10.80
2023-03-29T10:41:36.822Z,10.80
2023-03-29T10:44:05.495Z,10.80
2023-03-29T10:46:42.171Z,10.70
2023-03-29T10:49:20.367Z,10.70
2023-03-29T10:51:50.785Z,10.80
2023-03-29T10:54:22.284Z,10.90
2023-03-29T10:56:54.206Z,10.80
2023-03-29T10:59:30.917Z,10.90
2023-03-29T11:02:19.228Z,10.90
2023-03-29T11:04:52.572Z,10.90
2023-03-29T11:07:30.018Z,10.90
2023-03-29T11:10:12.305Z,10.90
2023-03-29T11:12:48.711Z,10.90
2023-03-29T11:15:27.522Z,10.90
2023-03-29T11:18:09.033Z,10.90
2023-03-29T11:20:43.141Z,10.90
2023-03-29T11:23:28.409Z,10.90
2023-03-29T11:26:08.962Z,10.90
2023-03-29T11:28:42.984Z,10.90
2023-03-29T11:31:25.008Z,11.00
2023-03-29T11:34:03.990Z,11.00
2023-03-29T11:36:40.164Z,11.00
2023-03-29T11:39:16.918Z,11.00
2023-03-29T11:41:48.015Z,11.00
2023-03-29T11:44:20.511Z,11.00
2023-03-29T11:46:54.678Z,11.00
2023-03-29T11:49:27.344Z,11.10
2023-03-29T11:52:02.041Z,11.10
2023-03-29T11:54:34.602Z,11.10
2023-03-29T11:57:08.083Z,11.10
2023-03-29T11:59:42.140Z,11.10
2023-03-29T12:02:17.902Z,11.10
2023-03-29T12:04:51.650Z,11.20
2023-03-29T12:07:26.696Z,11.20
2023-03-29T12:09:58.087Z,11.10
2023-03-29T12:12:29.984Z,11.10
2023-03-29T12:15:05.542Z,11.20
2023-03-29T12:17:39.332Z,11.20
2023-03-29T12:20:16.725Z,11.20
2023-03-29T12:22:50.940Z,11.20
2023-03-29T12:25:22.781Z,11.20
2023-03-29T12:28:05.584Z,11.20
2023-03-29T12:30:47.815Z,11.20
2023-03-29T12:33:43.552Z,11.30
2023-03-29T12:37:03.639Z,11.30
2023-03-29T12:40:15.065Z,11.30
2023-03-29T12:43:27.067Z,11.30
2023-03-29T12:46:32.792Z,11.20
2023-03-29T12:49:09.550Z,11.30
2023-03-29T12:51:41.084Z,11.30
2023-03-29T12:54:15.397Z,11.30
2023-03-29T12:56:58.338Z,11.30
2023-03-29T12:59:35.168Z,11.30
2023-03-29T13:02:21.942Z,11.30
2023-03-29T13:04:52.494Z,11.40
2023-03-29T13:07:31.917Z,11.40
2023-03-29T13:10:03.202Z,11.30
2023-03-29T13:12:40.312Z,11.30
2023-03-29T13:15:24.156Z,11.30
2023-03-29T13:18:00.217Z,11.40
2023-03-29T13:20:44.685Z,11.30
2023-03-29T13:23:30.493Z,11.40
2023-03-29T13:26:14.280Z,11.40
2023-03-29T13:29:20.398Z,11.40
2023-03-29T13:31:58.731Z,11.40
2023-03-29T13:34:37.713Z,11.40
2023-03-29T13:37:19.257Z,11.40
2023-03-29T13:39:51.151Z,11.40
2023-03-29T13:42:24.769Z,11.50
2023-03-29T13:45:05.867Z,11.40
2023-03-29T13:47:48.978Z,11.40
2023-03-29T13:50:36.230Z,11.50
2023-03-29T13:53:11.109Z,11.50
2023-03-29T13:55:46.592Z,11.50
2023-03-29T13:58:21.726Z,11.50
2023-03-29T14:00:56.695Z,11.50
2023-03-29T14:03:29.992Z,11.50
2023-03-29T14:06:01.908Z,11.60
2023-03-29T14:08:35.363Z,11.50
2023-03-29T14:11:06.987Z,11.50
2023-03-29T14:13:36.368Z,11.50
2023-03-29T14:16:10.367Z,11.60
2023-03-29T14:18:40.729Z,11.60
2023-03-29T14:21:09.688Z,11.60
2023-03-29T14:23:42.061Z,11.60
2023-03-29T14:26:17.020Z,11.50
2023-03-29T14:28:47.236Z,11.60
2023-03-29T14:31:25.220Z,11.60
2023-03-29T14:33:54.494Z,11.60
2023-03-29T14:36:23.793Z,11.60
2023-03-29T14:38:54.366Z,11.60
2023-03-29T14:41:24.367Z,11.60
2023-03-29T14:43:52.980Z,11.60
2023-03-29T14:46:23.083Z,11.60
2023-03-29T14:48:51.615Z,11.60
2023-03-29T14:51:20.434Z,11.60
2023-03-29T14:53:49.409Z,11.60
2023-03-29T14:56:24.166Z,11.60
2023-03-29T14:58:55.784Z,11.60
2023-03-29T15:01:27.933Z,11.60
2023-03-29T15:04:03.286Z,11.60
2023-03-29T15:06:33.008Z,11.60
2023-03-29T15:09:05.954Z,11.70
2023-03-29T15:11:35.965Z,11.70
2023-03-29T15:14:07.167Z,11.60
2023-03-29T15:16:39.909Z,11.60
2023-03-29T15:19:08.342Z,11.60
2023-03-29T15:21:36.786Z,11.60
2023-03-29T15:24:06.173Z,11.60
2023-03-29T15:26:36.068Z,11.80
2023-03-29T15:29:09.161Z,11.80
2023-03-29T15:31:41.206Z,11.90
2023-03-29T15:34:12.913Z,11.90
2023-03-29T15:36:42.486Z,11.90
2023-03-29T15:39:14.552Z,11.90
2023-03-29T15:41:43.650Z,11.90
2023-03-29T15:44:12.257Z,11.90
2023-03-29T15:46:41.979Z,12.00
2023-03-29T15:49:12.452Z,12.40
2023-03-29T15:51:41.693Z,12.00
2023-03-29T15:54:09.941Z,12.00
2023-03-29T15:56:46.970Z,12.00
2023-03-29T15:59:15.328Z,11.90
2023-03-29T16:01:46.945Z,11.90
2023-03-29T16:04:17.411Z,11.90
2023-03-29T16:06:48.939Z,11.80
2023-03-29T16:09:17.391Z,11.90
2023-03-29T16:11:47.167Z,11.80
2023-03-29T16:14:21.153Z,11.90
2023-03-29T16:16:51.375Z,11.80
2023-03-29T16:19:20.157Z,11.80
2023-03-29T16:21:49.191Z,11.80
2023-03-29T16:24:20.027Z,11.80
2023-03-29T16:26:48.636Z,11.80
2023-03-29T16:29:17.469Z,11.80
2023-03-29T16:31:46.854Z,11.80
2023-03-29T16:34:18.758Z,11.80
2023-03-29T16:36:47.827Z,11.80
2023-03-29T16:39:16.624Z,11.70
2023-03-29T16:41:48.455Z,11.80
2023-03-29T16:44:21.603Z,11.70
2023-03-29T16:46:52.784Z,11.80
2023-03-29T16:49:22.500Z,11.80
2023-03-29T16:51:51.205Z,11.80
2023-03-29T16:54:19.769Z,11.70
2023-03-29T16:56:48.229Z,11.70
2023-03-29T16:59:16.741Z,11.80
2023-03-29T17:01:45.119Z,11.70
2023-03-29T17:04:13.590Z,11.70
2023-03-29T17:06:43.264Z,11.70
2023-03-29T17:09:11.551Z,11.70
2023-03-29T17:11:39.762Z,11.70
2023-03-29T17:14:08.138Z,11.70
2023-03-29T17:16:36.352Z,11.60
2023-03-29T17:19:04.672Z,11.60
2023-03-29T17:21:33.167Z,11.70
2023-03-29T17:24:03.156Z,11.60
2023-03-29T17:26:31.438Z,11.60
2023-03-29T17:28:59.725Z,11.60
2023-03-29T17:31:28.026Z,11.70
2023-03-29T17:33:56.368Z,11.70
2023-03-29T17:36:25.392Z,11.60
2023-03-29T17:38:54.751Z,11.60
2023-03-29T17:41:24.697Z,11.60
2023-03-29T17:43:52.925Z,11.60
2023-03-29T17:46:22.840Z,11.60
2023-03-29T17:48:51.998Z,11.60
2023-03-29T17:51:21.152Z,11.60
2023-03-29T17:53:49.484Z,11.60
2023-03-29T17:56:17.663Z,11.50
2023-03-29T17:58:49.164Z,11.50
2023-03-29T18:01:19.545Z,11.50
2023-03-29T18:03:48.661Z,11.50
2023-03-29T18:06:20.201Z,11.40
2023-03-29T18:08:48.822Z,11.50
2023-03-29T18:11:22.102Z,11.50
2023-03-29T18:13:52.426Z,11.50
2023-03-29T18:16:21.627Z,11.50
2023-03-29T18:18:50.325Z,11.60
2023-03-29T18:21:19.422Z,11.60
2023-03-29T18:23:48.977Z,11.60
2023-03-29T18:26:18.152Z,11.70
2023-03-29T18:28:47.706Z,11.80
2023-03-29T18:31:19.826Z,11.80
2023-03-29T18:33:48.575Z,11.90
2023-03-29T18:36:17.111Z,11.80
2023-03-29T18:38:45.832Z,11.90
2023-03-29T18:41:15.017Z,11.80
2023-03-29T18:43:44.278Z,11.90
2023-03-29T18:46:12.685Z,11.90
2023-03-29T18:48:42.622Z,11.90
2023-03-29T18:51:12.706Z,11.90
2023-03-29T18:53:42.027Z,11.90
2023-03-29T18:56:11.186Z,11.90
2023-03-29T18:58:39.582Z,11.90
2023-03-29T19:01:08.154Z,11.90
2023-03-29T19:03:37.042Z,11.90
2023-03-29T19:06:08.038Z,11.90
2023-03-29T19:08:39.634Z,12.00
2023-03-29T19:11:08.855Z,12.00
2023-03-29T19:13:37.456Z,12.00
2023-03-29T19:16:06.400Z,12.10
2023-03-29T19:18:35.242Z,12.10
2023-03-29T19:21:03.741Z,12.00
2023-03-29T19:23:33.391Z,12.00
2023-03-29T19:26:03.590Z,12.00
2023-03-29T19:28:32.971Z,12.00
2023-03-29T19:31:03.020Z,12.00
2023-03-29T19:33:31.804Z,12.00
2023-03-29T19:36:00.132Z,12.00
2023-03-29T19:38:28.479Z,11.90
2023-03-29T19:40:58.145Z,11.90
2023-03-29T19:43:27.134Z,11.90
2023-03-29T19:45:55.365Z,11.90
2023-03-29T19:48:24.481Z,11.90
2023-03-29T19:50:53.065Z,11.80
2023-03-29T19:53:23.179Z,11.80
2023-03-29T19:55:52.463Z,11.80
2023-03-29T19:58:22.887Z,11.70
2023-03-29T20:00:53.325Z,11.70
2023-03-29T20:03:22.289Z,11.70
2023-03-29T20:05:50.551Z,11.70
2023-03-29T20:08:18.800Z,11.60
2023-03-29T20:10:46.937Z,11.60
2023-03-29T20:13:21.853Z,11.60
2023-03-29T20:15:57.658Z,11.50
2023-03-29T20:18:26.300Z,11.50
2023-03-29T20:20:54.732Z,11.60
2023-03-29T20:23:23.058Z,11.60
2023-03-29T20:25:51.312Z,11.60
2023-03-29T20:28:19.728Z,11.60
2023-03-29T20:30:51.249Z,11.60
2023-03-29T20:33:21.612Z,11.60
2023-03-29T20:35:50.291Z,11.70
2023-03-29T20:38:18.701Z,11.60
2023-03-29T20:40:47.019Z,11.70
2023-03-29T20:43:18.784Z,11.70
2023-03-29T20:45:54.023Z,11.90
2023-03-29T20:48:24.821Z,11.60
2023-03-29T20:50:54.374Z,11.60
2023-03-29T20:53:22.648Z,11.50
2023-03-29T20:55:51.691Z,11.50
2023-03-29T20:58:19.979Z,11.50
2023-03-29T21:00:48.499Z,11.50
2023-03-29T21:03:17.781Z,11.50
2023-03-29T21:05:47.438Z,11.50
2023-03-29T21:08:18.312Z,11.60
2023-03-29T21:10:47.818Z,11.60
2023-03-29T21:13:16.017Z,11.60
2023-03-29T21:15:44.501Z,11.60
2023-03-29T21:18:12.857Z,11.60
2023-03-29T21:20:41.096Z,11.60
2023-03-29T21:23:10.714Z,11.60
2023-03-29T21:25:38.889Z,11.60
2023-03-29T21:28:07.145Z,11.60
2023-03-29T21:30:35.439Z,11.60
2023-03-29T21:33:03.836Z,11.50
2023-03-29T21:35:33.314Z,11.50
2023-03-29T21:38:01.899Z,11.50
2023-03-29T21:40:31.597Z,11.60
2023-03-29T21:42:59.797Z,11.60
2023-03-29T21:45:28.398Z,11.60
2023-03-29T21:47:56.684Z,11.60
2023-03-29T21:50:25.020Z,11.60
2023-03-29T21:52:53.341Z,11.50
2023-03-29T21:55:21.595Z,11.50
2023-03-29T21:57:51.143Z,11.60
2023-03-29T22:00:19.575Z,11.60
2023-03-29T22:02:47.897Z,11.60
2023-03-29T22:05:16.666Z,11.60
2023-03-29T22:07:44.998Z,11.60
2023-03-29T22:10:14.073Z,11.60
2023-03-29T22:12:43.048Z,11.60
2023-03-29T22:15:13.427Z,11.50
2023-03-29T22:17:44.088Z,11.50
2023-03-29T22:20:13.886Z,11.50
2023-03-29T22:22:46.064Z,11.50
2023-03-29T22:25:14.534Z,11.50
2023-03-29T22:27:44.619Z,11.50
2023-03-29T22:30:17.968Z,11.50
2023-03-29T22:32:46.349Z,11.50
2023-03-29T22:35:14.686Z,11.50
2023-03-29T22:37:43.856Z,11.50
2023-03-29T22:40:13.472Z,11.50
2023-03-29T22:42:41.832Z,11.40
2023-03-29T22:45:11.314Z,11.50
2023-03-29T22:47:41.036Z,11.50
2023-03-29T22:50:10.295Z,11.50
2023-03-29T22:52:38.563Z,11.50
2023-03-29T22:55:07.741Z,11.50
2023-03-29T22:57:36.046Z,11.50
2023-03-29T23:00:09.014Z,11.50
2023-03-29T23:02:38.182Z,11.60
2023-03-29T23:05:09.248Z,11.50
2023-03-29T23:07:37.627Z,11.50
2023-03-29T23:10:07.247Z,11.50
2023-03-29T23:12:36.666Z,11.50
2023-03-29T23:15:06.326Z,11.50
2023-03-29T23:17:34.806Z,11.50
2023-03-29T23:20:05.939Z,11.50
2023-03-29T23:22:36.486Z,11.50
2023-03-29T23:25:04.969Z,11.50
2023-03-29T23:27:34.637Z,11.50
2023-03-29T23:30:02.944Z,11.50
2023-03-29T23:32:31.193Z,11.50
2023-03-29T23:35:00.397Z,11.50
2023-03-29T23:37:28.843Z,11.50
2023-03-29T23:39:58.443Z,11.50
2023-03-29T23:42:26.884Z,11.50
2023-03-29T23:44:55.932Z,11.40
2023-03-29T23:47:24.479Z,11.50
2023-03-29T23:49:53.315Z,11.50
2023-03-29T23:52:23.093Z,11.50
2023-03-29T23:54:51.500Z,11.50
2023-03-29T23:57:21.357Z,11.50
2023-03-29T23:59:52.797Z,11.50
